Time;durP1;ratioP1;P1;durP2;ratioP2;P2;SDS_P1;SDS_P2;PMS_P1;PMS_P2;Temp;Humidity;BMP_temperature;BMP_pressure;BME280_temperature;BME280_humidity;BME280_pressure;Samples;Min_cycle;Max_cycle;Signal;HPM_P1;HPM_P2
2023/05/20 06:59:48;;;;;;;19.65;15.35;;;13.90;98.30;;;;;;5025748;28;20338;-91
2023/05/20 07:18:50;;;;;;;20.77;15.52;;;14.50;96.10;;;;;;5039610;28;20225;-91
2023/05/20 07:21:17;;;;;;;19.85;15.38;;;14.30;96.70;;;;;;5062119;28;20205;-91
2023/05/20 07:23:44;;;;;;;17.92;14.88;;;14.20;96.70;;;;;;5065693;28;20677;-94
2023/05/20 07:28:58;;;;;;;16.48;14.60;;;14.20;96.10;;;;;;5033084;28;20268;-92
2023/05/20 07:31:25;;;;;;;15.93;13.57;;;14.30;96.20;;;;;;5063978;28;20205;-91
2023/05/20 07:33:52;;;;;;;16.67;13.38;;;14.50;95.70;;;;;;5058974;28;20563;-92
2023/05/20 07:44:25;;;;;;;13.20;11.80;;;16.10;90.00;;;;;;5040603;28;20209;-91
2023/05/20 07:46:52;;;;;;;14.52;12.93;;;16.60;85.10;;;;;;5054128;28;20198;-92
2023/05/20 07:49:20;;;;;;;15.18;12.18;;;16.80;80.80;;;;;;5072077;28;20202;-91
2023/05/20 07:54:28;;;;;;;14.57;12.85;;;16.70;80.70;;;;;;5060278;28;20201;-92
2023/05/20 07:59:40;;;;;;;14.02;11.20;;;16.40;87.00;;;;;;5018607;28;20225;-92
2023/05/20 08:02:07;;;;;;;12.32;11.02;;;16.70;83.50;;;;;;5063931;28;20225;-92
2023/05/20 08:04:55;;;;;;;11.57;10.38;;;17.00;82.20;;;;;;5048277;28;20221;-92
2023/05/20 08:10:03;;;;;;;12.02;10.20;;;17.60;76.00;;;;;;5041233;28;20200;-92
2023/05/20 08:17:53;;;;;;;10.73;9.50;;;17.80;70.40;;;;;;5058326;28;20695;-92
2023/05/20 08:20:25;;;;;;;12.38;10.32;;;17.60;74.20;;;;;;5047766;28;20204;-92
2023/05/20 08:22:52;;;;;;;11.02;9.23;;;17.40;75.40;;;;;;5067860;28;20189;-93
2023/05/20 08:25:19;;;;;;;12.48;10.60;;;17.60;76.80;;;;;;5038475;28;20229;-93
2023/05/20 08:30:57;;;;;;;9.15;8.25;;;17.60;75.00;;;;;;5058252;28;20209;-93
2023/05/20 08:33:24;;;;;;;9.35;8.35;;;17.70;74.60;;;;;;5074295;28;20673;-92
2023/05/20 08:47:11;;;;;;;8.07;7.07;;;19.20;51.70;;;;;;5067443;28;20208;-91
2023/05/20 08:49:39;;;;;;;7.25;6.47;;;19.10;55.10;;;;;;5047559;28;20205;-90
2023/05/20 08:54:50;;;;;;;9.13;7.03;;;19.20;52.80;;;;;;5048498;28;20212;-91
2023/05/20 08:57:19;;;;;;;7.82;6.93;;;19.30;55.30;;;;;;5046524;28;20210;-91
2023/05/20 08:59:47;;;;;;;7.18;6.57;;;19.50;49.70;;;;;;5045563;28;20202;-93
2023/05/20 09:10:07;;;;;;;7.30;6.60;;;19.80;49.90;;;;;;5348996;22;20237;-96
2023/05/20 09:27:09;;;;;;;5.55;4.72;;;21.60;33.50;;;;;;5070746;28;20217;-91
2023/05/20 09:32:35;;;;;;;5.20;4.40;;;23.40;27.20;;;;;;5030083;28;20276;-91
2023/05/20 09:44:52;;;;;;;4.20;3.90;;;23.60;23.20;;;;;;5034137;28;20305;-90
2023/05/20 09:57:19;;;;;;;4.63;4.10;;;22.40;26.30;;;;;;5073459;28;20288;-88
2023/05/20 10:37:14;;;;;;;3.58;3.20;;;26.90;15.10;;;;;;5044980;28;20240;-91
2023/05/20 10:54:48;;;;;;;3.30;3.10;;;27.10;14.50;;;;;;5014466;28;20213;-92
2023/05/20 11:11:15;;;;;;;3.38;3.08;;;25.30;17.90;;;;;;5048017;28;20232;-91
2023/05/20 11:13:42;;;;;;;3.42;3.10;;;24.90;18.00;;;;;;5044983;28;20403;-91
2023/05/20 11:41:55;;;;;;;5.82;3.08;;;24.60;19.20;;;;;;5032257;28;20227;-94
2023/05/20 11:57:20;;;;;;;4.25;2.80;;;24.20;18.80;;;;;;4998797;28;20199;-95
2023/05/20 12:13:09;;;;;;;3.72;3.03;;;24.50;18.00;;;;;;4915482;29;20214;-94
2023/05/20 13:18:07;;;;;;;7.82;6.07;;;24.00;20.70;;;;;;4951941;28;20220;-95
2023/05/20 13:34:19;;;;;;;8.77;6.43;;;24.30;20.00;;;;;;5019658;28;20202;-95
2023/05/20 13:36:46;;;;;;;6.97;5.68;;;24.20;20.60;;;;;;5028924;28;20210;-94
2023/05/20 13:39:13;;;;;;;7.05;5.93;;;24.20;20.40;;;;;;5015779;28;20230;-95
2023/05/20 13:41:40;;;;;;;6.88;6.18;;;24.20;20.00;;;;;;4998435;28;20206;-94
2023/05/20 13:45:00;;;;;;;8.48;6.28;;;24.30;21.40;;;;;;5001870;28;20580;-95
2023/05/20 13:52:53;;;;;;;9.88;6.32;;;24.00;20.60;;;;;;5001932;28;20210;-95
2023/05/20 13:58:01;;;;;;;12.88;6.78;;;23.90;22.30;;;;;;5007810;28;20281;-95
2023/05/20 14:01:32;;;;;;;7.95;6.10;;;23.90;21.90;;;;;;4978872;28;20206;-95
2023/05/20 14:22:59;;;;;;;7.20;6.50;;;23.40;21.60;;;;;;4988362;28;20206;-89
2023/05/20 14:25:48;;;;;;;6.95;6.30;;;23.40;21.00;;;;;;4971076;28;20710;-90
2023/05/20 14:28:14;;;;;;;7.40;6.13;;;23.30;20.60;;;;;;4991100;28;20211;-87
2023/05/20 14:33:24;;;;;;;7.25;6.10;;;23.30;20.40;;;;;;5014529;28;20238;-90
2023/05/20 14:36:19;;;;;;;7.65;6.10;;;23.20;20.30;;;;;;5031494;28;20198;-88
2023/05/20 14:39:10;;;;;;;8.70;6.35;;;23.20;21.00;;;;;;5002923;28;20210;-89
2023/05/20 14:41:37;;;;;;;7.70;6.90;;;23.20;21.70;;;;;;5021393;28;20207;-91
2023/05/20 14:44:05;;;;;;;7.68;6.47;;;23.10;22.70;;;;;;5002648;28;20210;-94
2023/05/20 14:46:34;;;;;;;9.68;6.40;;;23.00;22.70;;;;;;5023589;28;20212;-90
2023/05/20 14:49:01;;;;;;;7.03;6.32;;;22.80;23.30;;;;;;5020464;28;20194;-91
2023/05/20 16:30:02;;;;;;;8.45;6.95;;;21.90;27.60;;;;;;5021811;28;20716;-91
2023/05/20 16:32:29;;;;;;;8.93;6.60;;;21.80;27.60;;;;;;5005533;28;20574;-90
2023/05/20 16:34:56;;;;;;;7.30;6.60;;;21.80;28.20;;;;;;5025264;28;20207;-89
2023/05/20 16:37:24;;;;;;;7.47;6.78;;;21.70;28.50;;;;;;5028477;28;20205;-92
2023/05/20 16:39:51;;;;;;;8.13;6.82;;;21.70;28.10;;;;;;5006352;28;20640;-89
2023/05/20 16:42:20;;;;;;;8.05;6.70;;;21.70;29.30;;;;;;5013215;28;20205;-87
2023/05/20 16:44:48;;;;;;;7.93;6.30;;;21.70;29.30;;;;;;5017872;28;20258;-88
2023/05/20 16:47:15;;;;;;;11.60;6.97;;;21.60;28.80;;;;;;5020846;28;20628;-91
2023/05/20 16:49:56;;;;;;;8.50;6.47;;;21.50;29.20;;;;;;5007602;28;20762;-90
2023/05/20 16:52:23;;;;;;;11.98;6.97;;;21.60;29.20;;;;;;5019746;28;20207;-90
2023/05/20 16:54:51;;;;;;;9.25;7.07;;;21.60;28.70;;;;;;4997121;28;20297;-88
2023/05/20 16:57:19;;;;;;;7.75;6.95;;;21.60;29.00;;;;;;5019369;28;20202;-90
2023/05/20 16:59:46;;;;;;;8.85;6.97;;;21.50;29.70;;;;;;5016799;28;20207;-89
2023/05/20 17:02:13;;;;;;;8.13;6.93;;;21.40;32.20;;;;;;5016424;28;20239;-95
2023/05/20 17:04:53;;;;;;;9.70;6.97;;;21.30;30.80;;;;;;4986829;28;20210;-90
2023/05/20 17:07:20;;;;;;;8.77;7.30;;;21.30;31.70;;;;;;5026045;28;20763;-91
2023/05/20 17:09:47;;;;;;;8.02;7.28;;;21.30;31.90;;;;;;5031916;28;20191;-93
2023/05/20 17:12:38;;;;;;;8.77;7.30;;;21.30;32.20;;;;;;5044095;28;20266;-92
2023/05/20 17:54:04;;;;;;;9.27;7.55;;;20.60;36.50;;;;;;4874934;29;20192;-96
2023/05/20 18:00:58;;;;;;;8.02;6.97;;;20.50;36.30;;;;;;4876341;29;20668;-93
2023/05/20 18:06:13;;;;;;;11.98;7.97;;;20.30;38.50;;;;;;4853071;29;20228;-93
2023/05/20 18:08:41;;;;;;;8.95;7.32;;;20.20;39.50;;;;;;4881637;28;20205;-90
2023/05/20 18:11:08;;;;;;;9.77;7.70;;;20.10;40.60;;;;;;4986601;28;20219;-92
2023/05/20 18:13:35;;;;;;;11.50;7.47;;;20.00;42.60;;;;;;4975987;28;20230;-92
2023/05/20 18:16:02;;;;;;;8.32;7.53;;;19.90;43.70;;;;;;5007321;28;20258;-91
2023/05/20 18:21:12;;;;;;;8.93;8.02;;;19.90;44.50;;;;;;4977957;28;20562;-90
2023/05/20 18:23:39;;;;;;;10.20;7.70;;;19.70;46.10;;;;;;4989162;28;20200;-94
2023/05/20 18:32:05;;;;;;;10.35;7.63;;;19.60;49.60;;;;;;4949921;28;20204;-93
2023/05/20 18:37:14;;;;;;;9.75;7.63;;;19.40;52.40;;;;;;4969817;28;20204;-94
2023/05/20 18:39:42;;;;;;;9.80;8.20;;;19.50;50.80;;;;;;4996454;28;20247;-94
2023/05/20 18:42:09;;;;;;;8.38;7.57;;;19.40;52.80;;;;;;4976664;28;20212;-93
2023/05/20 18:44:39;;;;;;;8.55;7.72;;;19.30;53.20;;;;;;4944452;28;20196;-93
2023/05/20 18:47:06;;;;;;;9.43;8.35;;;19.20;54.70;;;;;;4995961;28;20323;-94
2023/05/20 18:52:18;;;;;;;9.60;7.85;;;19.10;55.10;;;;;;4979264;28;20318;-94
2023/05/20 18:57:26;;;;;;;8.52;7.72;;;19.10;55.10;;;;;;4976989;28;20275;-95
2023/05/20 18:59:53;;;;;;;11.40;8.35;;;19.00;56.40;;;;;;4975346;28;20208;-94
2023/05/20 19:02:20;;;;;;;9.85;8.45;;;19.00;58.50;;;;;;4996009;28;20294;-95
2023/05/20 19:04:48;;;;;;;9.63;8.73;;;18.90;59.00;;;;;;4990980;28;20212;-95
2023/05/20 19:09:56;;;;;;;9.95;8.52;;;18.80;60.30;;;;;;4978299;28;20209;-94
2023/05/20 19:12:24;;;;;;;10.07;7.97;;;18.70;62.60;;;;;;4973786;28;20679;-93
2023/05/20 19:15:07;;;;;;;12.60;8.55;;;18.70;64.60;;;;;;4987427;28;20215;-94
2023/05/20 19:17:34;;;;;;;11.73;8.18;;;18.60;64.60;;;;;;4984595;28;20231;-95
2023/05/20 19:20:05;;;;;;;10.73;8.43;;;18.60;66.30;;;;;;5001964;28;20195;-94
2023/05/20 19:22:51;;;;;;;11.90;8.63;;;18.60;66.40;;;;;;4979377;28;20204;-94
2023/05/20 19:25:18;;;;;;;10.63;8.65;;;18.50;68.30;;;;;;4981465;28;20298;-93
2023/05/20 19:27:45;;;;;;;9.48;8.50;;;18.40;69.50;;;;;;4993061;28;20977;-93
2023/05/20 19:30:12;;;;;;;9.85;8.43;;;18.40;68.40;;;;;;4979425;28;20683;-94
2023/05/20 19:32:39;;;;;;;10.38;8.27;;;18.40;68.70;;;;;;4978004;28;20215;-94
2023/05/20 19:37:51;;;;;;;10.20;8.30;;;18.30;71.90;;;;;;4978017;28;20574;-95
2023/05/20 19:43:02;;;;;;;9.15;8.25;;;18.30;69.80;;;;;;4960805;28;20196;-95
2023/05/20 19:45:29;;;;;;;11.05;8.60;;;18.30;70.40;;;;;;4987112;28;20215;-93
2023/05/20 19:50:39;;;;;;;12.73;9.10;;;18.20;71.20;;;;;;4960910;28;20203;-93
2023/05/20 19:53:09;;;;;;;9.90;8.90;;;18.10;72.50;;;;;;4975515;28;20196;-95
2023/05/20 19:55:37;;;;;;;10.60;7.85;;;18.00;73.60;;;;;;4960266;28;20207;-94
2023/05/20 19:58:04;;;;;;;9.10;8.25;;;18.00;74.40;;;;;;4976871;28;20242;-93
2023/05/20 20:00:51;;;;;;;9.77;8.48;;;18.00;73.20;;;;;;4990217;28;20218;-94
2023/05/20 20:03:18;;;;;;;9.82;8.82;;;18.00;73.20;;;;;;4991231;28;20210;-93
2023/05/20 20:05:47;;;;;;;11.73;8.85;;;17.90;73.80;;;;;;4969859;28;20700;-94
2023/05/20 20:08:14;;;;;;;11.05;8.52;;;17.90;74.20;;;;;;4984219;28;20672;-93
2023/05/20 20:10:41;;;;;;;10.85;8.65;;;17.80;75.40;;;;;;4987993;28;20196;-94
2023/05/20 20:13:08;;;;;;;11.75;8.80;;;17.80;75.40;;;;;;4961360;28;20219;-93
2023/05/20 20:15:35;;;;;;;10.23;8.25;;;17.60;76.30;;;;;;4972955;28;20303;-94
2023/05/20 20:20:44;;;;;;;12.27;8.93;;;17.60;76.50;;;;;;4983906;28;21395;-93
2023/05/20 20:23:15;;;;;;;12.55;8.80;;;17.60;78.00;;;;;;4967777;28;20276;-93
2023/05/20 20:25:42;;;;;;;10.52;9.45;;;17.60;77.30;;;;;;4993114;28;20216;-93
2023/05/20 20:30:51;;;;;;;9.98;8.68;;;17.40;79.00;;;;;;4973529;28;20243;-95
2023/05/20 20:35:59;;;;;;;9.95;8.73;;;17.30;78.90;;;;;;4980189;28;20207;-93
2023/05/20 20:38:28;;;;;;;10.15;8.77;;;17.30;78.90;;;;;;4974834;28;20239;-94
2023/05/20 20:40:58;;;;;;;10.80;9.00;;;17.40;79.00;;;;;;4971866;28;20212;-95
2023/05/20 20:43:27;;;;;;;11.80;9.40;;;17.30;78.90;;;;;;4957119;28;20226;-94
2023/05/20 20:45:55;;;;;;;10.05;8.98;;;17.30;78.90;;;;;;4974319;28;20696;-94
2023/05/20 20:51:03;;;;;;;9.85;8.85;;;17.10;78.80;;;;;;4973426;28;20233;-93
2023/05/20 20:53:31;;;;;;;10.43;8.93;;;17.00;78.70;;;;;;4986032;28;20223;-94
2023/05/20 20:55:58;;;;;;;11.75;9.10;;;16.90;79.40;;;;;;4991643;28;20286;-95
2023/05/20 20:58:25;;;;;;;9.75;8.75;;;16.90;81.50;;;;;;4971331;28;20206;-93
2023/05/20 21:00:53;;;;;;;10.23;9.20;;;16.80;82.60;;;;;;4992452;28;20210;-94
2023/05/20 21:03:22;;;;;;;9.82;8.82;;;16.80;82.60;;;;;;4962433;28;20208;-94
2023/05/20 21:05:50;;;;;;;11.00;8.68;;;16.70;82.90;;;;;;4973978;28;20224;-94
2023/05/20 21:08:20;;;;;;;10.98;8.65;;;16.80;81.90;;;;;;4989293;28;20281;-94
2023/05/20 21:10:49;;;;;;;10.18;8.95;;;16.70;81.90;;;;;;4990552;28;20196;-92
2023/05/20 21:13:16;;;;;;;11.85;9.35;;;16.60;82.60;;;;;;4986415;28;20204;-94
2023/05/20 21:15:45;;;;;;;9.80;8.77;;;16.60;83.50;;;;;;4970484;28;20207;-94
2023/05/20 21:18:30;;;;;;;12.43;8.23;;;16.60;83.50;;;;;;4981589;28;20718;-94
2023/05/20 21:20:57;;;;;;;10.23;8.60;;;16.60;82.70;;;;;;4986656;28;20191;-94
2023/05/20 21:23:24;;;;;;;11.02;8.02;;;16.70;82.10;;;;;;4970062;28;20211;-94
2023/05/20 21:28:33;;;;;;;9.73;7.80;;;16.70;82.10;;;;;;4961094;28;20210;-95
2023/05/20 21:31:00;;;;;;;11.38;9.48;;;16.60;82.10;;;;;;4993268;28;20238;-94
2023/05/20 21:33:27;;;;;;;11.77;8.85;;;16.70;81.40;;;;;;4981572;28;20228;-93
2023/05/20 21:35:54;;;;;;;9.75;8.75;;;16.70;81.60;;;;;;4988240;28;20263;-94
2023/05/20 21:38:25;;;;;;;10.05;8.95;;;16.80;81.00;;;;;;4993355;28;20256;-94
2023/05/20 21:41:01;;;;;;;9.80;8.80;;;16.70;81.70;;;;;;4989310;28;20273;-93
2023/05/20 21:43:29;;;;;;;9.55;8.57;;;16.70;82.40;;;;;;4994578;28;20203;-94
2023/05/20 21:45:56;;;;;;;10.93;8.95;;;16.60;82.60;;;;;;4993333;28;20279;-93
2023/05/20 21:48:23;;;;;;;10.65;8.70;;;16.60;83.00;;;;;;4989677;28;20200;-94
2023/05/20 21:50:50;;;;;;;9.30;8.27;;;16.60;82.60;;;;;;4987941;28;20195;-93
2023/05/20 21:53:19;;;;;;;9.60;8.60;;;16.50;83.10;;;;;;4995533;28;20219;-95
2023/05/20 21:55:46;;;;;;;10.00;8.25;;;16.50;83.70;;;;;;4994636;28;20200;-93
2023/05/20 22:00:55;;;;;;;9.68;8.43;;;16.30;84.40;;;;;;4991609;28;20279;-91
2023/05/20 22:03:23;;;;;;;10.57;9.23;;;16.30;84.00;;;;;;4996231;28;20684;-94
2023/05/20 22:05:50;;;;;;;9.27;8.38;;;16.20;84.40;;;;;;4975734;28;20258;-93
2023/05/20 22:08:17;;;;;;;12.95;9.02;;;16.20;85.30;;;;;;4988727;28;20204;-94
2023/05/20 22:11:05;;;;;;;8.68;7.78;;;16.10;85.70;;;;;;4988256;28;20685;-93
2023/05/20 22:13:40;;;;;;;9.40;8.48;;;16.10;85.60;;;;;;4976252;28;21026;-94
2023/05/20 22:16:08;;;;;;;9.90;8.90;;;16.10;85.20;;;;;;4966030;28;20205;-94
2023/05/20 22:18:35;;;;;;;13.55;8.73;;;16.10;86.00;;;;;;4992642;28;20224;-95
2023/05/20 22:21:02;;;;;;;10.38;8.48;;;16.10;85.40;;;;;;4996123;28;20203;-93
2023/05/20 22:23:29;;;;;;;10.40;9.25;;;16.00;85.10;;;;;;4977379;28;20204;-94
2023/05/20 22:25:57;;;;;;;10.75;8.82;;;16.10;85.60;;;;;;4978265;28;20203;-93
2023/05/20 22:28:25;;;;;;;10.00;8.73;;;16.00;86.30;;;;;;4985627;28;20250;-93
2023/05/20 22:33:35;;;;;;;9.40;8.40;;;16.00;86.40;;;;;;4995948;28;20852;-94
2023/05/20 22:36:02;;;;;;;10.02;9.02;;;15.90;86.60;;;;;;4980422;28;20279;-93
2023/05/20 22:38:30;;;;;;;8.95;8.10;;;15.90;85.90;;;;;;4996034;28;20263;-94
2023/05/20 22:40:57;;;;;;;10.60;9.15;;;15.90;85.00;;;;;;4998219;28;20200;-94
2023/05/20 22:46:06;;;;;;;12.60;7.85;;;15.90;85.20;;;;;;4995987;28;20218;-94
2023/05/20 22:48:33;;;;;;;9.30;7.78;;;15.90;84.40;;;;;;4982939;28;20200;-93
2023/05/20 22:51:02;;;;;;;10.18;8.02;;;16.00;83.80;;;;;;4986462;28;20572;-93
2023/05/20 22:53:30;;;;;;;10.50;8.73;;;16.00;83.20;;;;;;4979411;28;20634;-93
2023/05/20 22:55:58;;;;;;;10.70;8.25;;;15.90;82.80;;;;;;4973558;28;20201;-89
2023/05/20 22:58:26;;;;;;;9.35;8.38;;;15.90;83.10;;;;;;4995195;28;20206;-94
2023/05/20 23:01:15;;;;;;;9.27;8.30;;;15.90;82.70;;;;;;4995514;28;20287;-94
2023/05/20 23:03:43;;;;;;;10.07;8.10;;;15.90;81.30;;;;;;4997962;28;20192;-94
2023/05/20 23:06:10;;;;;;;9.13;7.90;;;15.80;81.40;;;;;;4996908;28;20216;-92
2023/05/20 23:08:37;;;;;;;9.13;8.23;;;15.80;81.00;;;;;;4997231;28;20195;-94
2023/05/20 23:11:04;;;;;;;9.85;7.68;;;15.80;81.20;;;;;;4991602;28;20196;-93
2023/05/20 23:13:31;;;;;;;11.77;7.53;;;15.80;80.50;;;;;;4995289;28;20202;-95
2023/05/20 23:15:58;;;;;;;9.13;8.23;;;15.80;80.80;;;;;;4951699;28;20235;-95
2023/05/20 23:18:30;;;;;;;8.38;7.55;;;15.70;80.50;;;;;;4980204;28;20221;-94
2023/05/20 23:20:58;;;;;;;9.02;7.93;;;15.70;80.40;;;;;;4997157;28;20210;-94
2023/05/20 23:23:25;;;;;;;8.75;7.35;;;15.70;79.80;;;;;;4978359;28;20211;-94
2023/05/20 23:25:52;;;;;;;11.38;7.95;;;15.70;80.10;;;;;;4976969;28;20203;-92
2023/05/20 23:28:20;;;;;;;12.45;8.63;;;15.60;80.30;;;;;;4991201;28;20233;-94
2023/05/20 23:30:47;;;;;;;8.70;7.35;;;15.60;80.80;;;;;;4970265;28;20215;-95
2023/05/20 23:33:15;;;;;;;8.63;7.72;;;15.50;81.50;;;;;;4985454;28;20196;-94
2023/05/20 23:35:44;;;;;;;8.95;8.05;;;15.50;81.30;;;;;;4977467;28;20224;-92
2023/05/20 23:38:11;;;;;;;8.93;7.82;;;15.50;81.30;;;;;;4995414;28;20200;-94
2023/05/20 23:40:38;;;;;;;10.60;8.20;;;15.40;81.40;;;;;;5000053;28;20227;-93
2023/05/20 23:43:05;;;;;;;9.93;7.25;;;15.40;80.60;;;;;;4990274;28;20588;-93
2023/05/20 23:45:32;;;;;;;10.82;7.47;;;15.30;80.80;;;;;;4968994;28;20263;-94
2023/05/20 23:48:00;;;;;;;13.00;8.10;;;15.30;80.90;;;;;;4997669;28;20296;-94
2023/05/20 23:50:27;;;;;;;8.57;7.72;;;15.30;80.90;;;;;;4996787;28;20215;-95
2023/05/20 23:52:57;;;;;;;8.07;7.28;;;15.30;80.70;;;;;;4975184;28;20207;-94
2023/05/20 23:55:24;;;;;;;10.07;7.43;;;15.20;80.80;;;;;;4987982;28;20208;-93
2023/05/20 23:57:51;;;;;;;8.20;7.40;;;15.10;81.00;;;;;;4993308;28;20728;-93
